Time;durP1;ratioP1;P1;durP2;ratioP2;P2;SDS_P1;SDS_P2;PMS_P1;PMS_P2;Temp;Humidity;BMP_temperature;BMP_pressure;BME280_temperature;BME280_humidity;BME280_pressure;Samples;Min_cycle;Max_cycle;Signal;HPM_P1;HPM_P2
2022/10/23 00:03:16;;;;;;;15.37;10.53;;;10.80;99.90;;;;;;8395491;28;20364;-69
2022/10/23 00:07:17;;;;;;;13.83;9.53;;;10.80;99.90;;;;;;8395942;28;20208;-68
2022/10/23 00:11:21;;;;;;;16.97;10.20;;;10.80;99.90;;;;;;8414521;28;20228;-68
2022/10/23 00:15:22;;;;;;;14.40;10.17;;;10.80;99.90;;;;;;8396080;28;20572;-70
2022/10/23 00:19:23;;;;;;;16.43;10.00;;;10.70;99.90;;;;;;8396238;28;20283;-68
2022/10/23 00:23:24;;;;;;;15.37;10.23;;;10.80;99.90;;;;;;8402779;28;20278;-69
2022/10/23 00:27:25;;;;;;;12.90;9.60;;;10.70;99.90;;;;;;8411834;28;20184;-68
2022/10/23 00:31:26;;;;;;;14.43;9.97;;;10.80;99.90;;;;;;8413818;28;20160;-68
2022/10/23 00:35:26;;;;;;;12.43;10.10;;;10.80;99.90;;;;;;8412670;28;20184;-68
2022/10/23 00:39:27;;;;;;;13.63;9.20;;;10.80;99.90;;;;;;8413140;28;20191;-68
2022/10/23 00:43:29;;;;;;;13.27;9.30;;;10.80;99.90;;;;;;8415909;28;20215;-68
2022/10/23 00:47:30;;;;;;;13.63;9.53;;;10.90;99.90;;;;;;8392907;28;20246;-69
2022/10/23 00:51:42;;;;;;;15.57;10.17;;;10.80;99.90;;;;;;8414352;28;20180;-69
2022/10/23 00:55:45;;;;;;;14.00;9.70;;;10.90;99.90;;;;;;8414402;28;20286;-69
2022/10/23 00:59:46;;;;;;;11.83;9.57;;;10.80;99.90;;;;;;8413739;28;20203;-68
2022/10/23 01:03:48;;;;;;;13.57;10.30;;;10.80;99.90;;;;;;8393673;28;20250;-68
2022/10/23 01:08:00;;;;;;;12.43;9.53;;;10.80;99.90;;;;;;8402350;28;20258;-69
2022/10/23 01:12:32;;;;;;;16.13;9.30;;;10.80;99.90;;;;;;8408535;28;20165;-69
2022/10/23 01:16:50;;;;;;;13.80;9.57;;;10.80;99.90;;;;;;8390661;28;20256;-69
2022/10/23 01:21:08;;;;;;;13.00;9.50;;;10.80;99.90;;;;;;8392061;28;20180;-69
2022/10/23 01:25:47;;;;;;;13.87;9.60;;;10.80;99.90;;;;;;8409608;28;20222;-68
2022/10/23 01:30:15;;;;;;;13.50;9.23;;;10.80;99.90;;;;;;8410960;28;20185;-69
2022/10/23 01:34:22;;;;;;;15.80;9.83;;;10.70;99.90;;;;;;8406423;28;20203;-69
2022/10/23 01:38:40;;;;;;;14.00;9.00;;;10.70;99.90;;;;;;8385756;28;20189;-69
2022/10/23 01:42:47;;;;;;;12.77;8.63;;;10.70;99.90;;;;;;8391638;28;20192;-68
2022/10/23 01:46:49;;;;;;;13.83;8.87;;;10.60;99.90;;;;;;8392521;28;20279;-69
2022/10/23 01:50:52;;;;;;;13.83;9.33;;;10.60;99.90;;;;;;8392953;28;20240;-68
2022/10/23 01:54:56;;;;;;;13.87;9.63;;;10.70;99.90;;;;;;8411175;28;20203;-69
2022/10/23 01:59:02;;;;;;;15.17;10.27;;;10.60;99.90;;;;;;8409001;28;20219;-69
2022/10/23 02:03:04;;;;;;;14.13;10.37;;;10.60;99.90;;;;;;8390243;28;20318;-69
2022/10/23 02:07:05;;;;;;;13.63;10.47;;;10.60;99.90;;;;;;8388247;28;20186;-69
2022/10/23 02:11:24;;;;;;;13.03;10.57;;;10.50;99.90;;;;;;8392334;28;20184;-68
2022/10/23 02:15:40;;;;;;;14.33;10.90;;;10.50;99.90;;;;;;8391862;28;20184;-69
2022/10/23 02:20:01;;;;;;;15.90;11.50;;;10.50;99.90;;;;;;8410384;28;20194;-69
2022/10/23 02:24:08;;;;;;;14.90;11.87;;;10.50;99.90;;;;;;8408714;28;20232;-69
2022/10/23 02:28:13;;;;;;;13.30;10.83;;;10.40;99.90;;;;;;8411343;28;20192;-68
2022/10/23 02:32:16;;;;;;;17.57;11.17;;;10.40;99.90;;;;;;8409675;28;20388;-68
2022/10/23 02:36:18;;;;;;;17.10;11.77;;;10.40;99.90;;;;;;8407935;28;20180;-69
2022/10/23 02:40:21;;;;;;;20.07;12.10;;;10.40;99.90;;;;;;8393859;28;20224;-69
2022/10/23 02:44:50;;;;;;;16.47;12.10;;;10.40;99.90;;;;;;8411499;28;20212;-69
2022/10/23 02:49:14;;;;;;;15.37;11.60;;;10.30;99.90;;;;;;8373141;28;20185;-70
2022/10/23 02:53:39;;;;;;;19.70;12.77;;;10.30;99.90;;;;;;8405981;28;20242;-68
2022/10/23 02:58:03;;;;;;;20.93;12.87;;;10.40;99.90;;;;;;8410422;28;20210;-68
2022/10/23 03:02:30;;;;;;;14.40;11.73;;;10.30;99.90;;;;;;8396476;28;20228;-69
2022/10/23 03:06:31;;;;;;;14.30;11.03;;;10.30;99.90;;;;;;8413597;28;20180;-68
2022/10/23 03:10:32;;;;;;;16.27;11.20;;;10.30;99.90;;;;;;8397467;28;20180;-68
2022/10/23 03:14:33;;;;;;;14.43;11.47;;;10.30;99.90;;;;;;8418100;28;20223;-68
2022/10/23 03:18:34;;;;;;;12.33;9.57;;;10.30;99.90;;;;;;8393498;28;20199;-68
2022/10/23 03:22:35;;;;;;;14.40;11.13;;;10.30;99.90;;;;;;8397452;28;20301;-69
2022/10/23 03:26:36;;;;;;;15.27;10.07;;;10.20;99.90;;;;;;8398049;28;20184;-69
2022/10/23 03:30:37;;;;;;;15.40;10.33;;;10.20;99.90;;;;;;8414150;28;20183;-68
2022/10/23 03:34:37;;;;;;;14.63;10.20;;;10.10;99.90;;;;;;8399726;28;20229;-68
2022/10/23 03:38:38;;;;;;;13.90;10.87;;;10.10;99.90;;;;;;8398094;28;20195;-68
2022/10/23 03:42:39;;;;;;;14.90;10.80;;;10.10;99.90;;;;;;8397984;28;20211;-68
2022/10/23 03:46:39;;;;;;;16.77;10.70;;;10.00;99.90;;;;;;8395246;28;20180;-68
2022/10/23 03:50:40;;;;;;;13.87;9.43;;;10.00;99.90;;;;;;8416035;28;20179;-68
2022/10/23 03:54:41;;;;;;;12.27;8.37;;;10.00;99.90;;;;;;8419099;28;20263;-69
2022/10/23 03:58:42;;;;;;;13.23;9.27;;;10.00;99.90;;;;;;8396271;28;20288;-69
2022/10/23 04:02:43;;;;;;;14.03;9.60;;;10.00;99.90;;;;;;8396848;28;20243;-69
2022/10/23 04:06:44;;;;;;;12.87;9.10;;;10.00;99.90;;;;;;8392579;28;20271;-68
2022/10/23 04:10:45;;;;;;;15.57;9.77;;;10.00;99.90;;;;;;8397598;28;20175;-68
2022/10/23 04:14:45;;;;;;;14.00;9.03;;;10.00;99.90;;;;;;8396724;28;20250;-69
2022/10/23 04:18:46;;;;;;;13.17;9.73;;;9.90;99.90;;;;;;8415472;28;20176;-68
2022/10/23 04:22:47;;;;;;;14.47;9.20;;;10.00;99.90;;;;;;8398360;28;20270;-68
2022/10/23 04:26:47;;;;;;;12.13;8.63;;;9.90;99.90;;;;;;8412428;28;20219;-68
2022/10/23 04:30:48;;;;;;;12.43;8.73;;;9.90;99.90;;;;;;8415616;28;20199;-67
2022/10/23 04:34:49;;;;;;;10.97;7.87;;;9.80;99.90;;;;;;8387275;28;20187;-68
2022/10/23 04:38:50;;;;;;;11.60;8.03;;;9.70;99.90;;;;;;8412658;28;20294;-68
2022/10/23 04:42:50;;;;;;;10.57;8.80;;;9.60;99.90;;;;;;8396545;28;20207;-69
2022/10/23 04:46:51;;;;;;;10.60;7.57;;;9.60;99.90;;;;;;8412820;28;20385;-68
2022/10/23 04:51:00;;;;;;;11.73;6.93;;;9.60;99.90;;;;;;8391433;28;20187;-68
2022/10/23 04:55:01;;;;;;;8.43;6.30;;;9.50;99.90;;;;;;8412992;28;20218;-68
2022/10/23 04:59:02;;;;;;;11.77;6.43;;;9.40;99.90;;;;;;8392930;28;20209;-68
2022/10/23 05:03:03;;;;;;;8.80;7.00;;;9.30;99.90;;;;;;8394079;28;20220;-68
2022/10/23 05:07:04;;;;;;;9.63;6.67;;;9.20;99.90;;;;;;8414109;28;20212;-68
2022/10/23 05:11:05;;;;;;;8.63;6.63;;;9.20;99.90;;;;;;8394838;28;20194;-67
2022/10/23 05:15:06;;;;;;;8.70;6.43;;;9.10;99.90;;;;;;8392993;28;20190;-68
2022/10/23 05:19:12;;;;;;;9.47;7.13;;;9.10;99.90;;;;;;8410535;28;20222;-70
2022/10/23 05:23:17;;;;;;;15.47;10.23;;;9.10;99.90;;;;;;8393959;28;20222;-68
2022/10/23 05:27:17;;;;;;;13.60;9.60;;;9.20;99.90;;;;;;8394726;28;20186;-68
2022/10/23 05:31:20;;;;;;;16.10;11.63;;;9.20;99.90;;;;;;8409416;28;20187;-68
2022/10/23 05:35:22;;;;;;;13.37;11.17;;;9.10;99.90;;;;;;8394796;28;20190;-68
2022/10/23 05:39:23;;;;;;;12.53;9.93;;;9.10;99.90;;;;;;8411273;28;20185;-68
2022/10/23 05:43:26;;;;;;;13.87;10.53;;;9.00;99.90;;;;;;8395513;28;20212;-67
2022/10/23 05:47:26;;;;;;;14.17;10.67;;;8.90;99.90;;;;;;8411214;28;20183;-68
2022/10/23 05:51:27;;;;;;;13.13;9.47;;;8.90;99.90;;;;;;8389149;28;20182;-67
2022/10/23 05:55:28;;;;;;;12.93;10.73;;;8.80;99.90;;;;;;8392156;28;20193;-68
2022/10/23 05:59:29;;;;;;;13.80;10.03;;;8.80;99.90;;;;;;8392787;28;20197;-68
2022/10/23 06:03:29;;;;;;;10.53;9.40;;;8.80;99.90;;;;;;8411953;28;20209;-68
2022/10/23 06:07:30;;;;;;;12.10;9.47;;;8.80;99.90;;;;;;8388461;28;20187;-68
2022/10/23 06:11:31;;;;;;;13.47;10.40;;;8.90;99.90;;;;;;8409152;28;20466;-68
2022/10/23 06:15:32;;;;;;;15.10;10.37;;;9.00;99.90;;;;;;8391970;28;20199;-68
2022/10/23 06:19:33;;;;;;;15.97;11.27;;;9.00;99.90;;;;;;8393452;28;20185;-69
2022/10/23 06:23:35;;;;;;;15.27;11.37;;;9.10;99.90;;;;;;8411768;28;20210;-69
2022/10/23 06:27:36;;;;;;;17.00;12.17;;;9.20;99.90;;;;;;8394802;28;20189;-69
2022/10/23 06:31:37;;;;;;;16.23;12.77;;;9.30;99.90;;;;;;8400662;28;20182;-69
2022/10/23 06:35:38;;;;;;;17.90;13.67;;;9.40;99.90;;;;;;8400381;28;20189;-69
2022/10/23 06:39:39;;;;;;;19.63;14.90;;;9.50;99.90;;;;;;8418455;28;20254;-69
2022/10/23 06:43:40;;;;;;;18.20;12.67;;;9.60;99.90;;;;;;8397876;28;20211;-70
2022/10/23 06:47:41;;;;;;;16.60;12.00;;;9.80;99.90;;;;;;8399578;28;20646;-69
2022/10/23 06:51:42;;;;;;;17.17;12.43;;;10.00;99.90;;;;;;8395980;28;20180;-69
2022/10/23 06:55:43;;;;;;;20.00;13.33;;;10.20;99.90;;;;;;8414900;28;20278;-69
2022/10/23 06:59:43;;;;;;;17.00;11.67;;;10.50;99.90;;;;;;8412990;28;20212;-69
2022/10/23 07:03:44;;;;;;;15.93;10.67;;;10.70;99.90;;;;;;8398248;28;20223;-69
2022/10/23 07:07:45;;;;;;;17.67;10.23;;;10.90;99.90;;;;;;8398375;28;20180;-71
2022/10/23 07:11:46;;;;;;;14.77;11.30;;;11.10;99.90;;;;;;8398886;28;20187;-70
2022/10/23 07:15:47;;;;;;;16.57;11.33;;;11.20;99.90;;;;;;8395996;28;20192;-70
2022/10/23 07:19:48;;;;;;;17.03;12.30;;;11.40;99.90;;;;;;8396976;28;20185;-70
2022/10/23 07:23:49;;;;;;;12.90;10.13;;;11.60;99.90;;;;;;8415373;28;20204;-70
2022/10/23 07:27:50;;;;;;;19.27;10.37;;;11.80;99.90;;;;;;8415360;28;20185;-69
2022/10/23 07:31:50;;;;;;;13.30;9.50;;;12.10;99.90;;;;;;8402726;28;20180;-69
2022/10/23 07:35:51;;;;;;;13.77;9.07;;;12.30;99.90;;;;;;8399179;28;20262;-70
2022/10/23 07:39:52;;;;;;;11.80;8.17;;;12.40;99.90;;;;;;8399427;28;20190;-70
2022/10/23 07:43:53;;;;;;;10.57;8.60;;;12.40;99.90;;;;;;8417712;28;20321;-70
2022/10/23 07:47:54;;;;;;;11.83;8.37;;;12.40;99.90;;;;;;8415662;28;20208;-69
2022/10/23 07:51:57;;;;;;;10.37;7.77;;;12.60;99.90;;;;;;8400237;28;20181;-70
2022/10/23 07:56:03;;;;;;;8.47;6.40;;;12.80;99.90;;;;;;8396023;28;20209;-68
2022/10/23 08:00:05;;;;;;;9.90;6.80;;;13.10;99.90;;;;;;8415870;28;20264;-69
2022/10/23 08:04:08;;;;;;;6.93;5.80;;;13.40;99.90;;;;;;8405479;28;20246;-69
2022/10/23 08:08:09;;;;;;;7.33;5.53;;;13.60;99.90;;;;;;8414738;28;20549;-69
2022/10/23 08:12:09;;;;;;;6.63;4.87;;;13.70;99.90;;;;;;8416945;28;20192;-69
2022/10/23 08:16:10;;;;;;;8.13;5.13;;;13.80;99.90;;;;;;8397502;28;20188;-70
2022/10/23 08:20:12;;;;;;;6.23;4.53;;;13.90;99.90;;;;;;8395881;28;20195;-69
2022/10/23 08:24:13;;;;;;;7.13;4.40;;;14.10;99.90;;;;;;8415968;28;20552;-69
2022/10/23 08:28:15;;;;;;;5.57;3.70;;;14.20;99.90;;;;;;8415111;28;20180;-69
2022/10/23 08:32:16;;;;;;;6.10;4.50;;;14.40;99.90;;;;;;8392496;28;20180;-69
2022/10/23 08:36:18;;;;;;;5.20;4.23;;;14.60;99.90;;;;;;8397689;28;20196;-70
2022/10/23 08:40:23;;;;;;;6.23;4.70;;;14.70;99.90;;;;;;8413048;28;20212;-69
2022/10/23 08:44:47;;;;;;;6.33;4.00;;;14.90;99.90;;;;;;8415388;28;20212;-69
2022/10/23 08:48:54;;;;;;;5.03;4.03;;;15.10;99.90;;;;;;8413490;28;20283;-70
2022/10/23 08:53:21;;;;;;;6.67;4.07;;;15.30;99.90;;;;;;8397731;28;20176;-70
2022/10/23 08:57:25;;;;;;;4.70;3.13;;;15.50;99.90;;;;;;8404398;28;20209;-70
2022/10/23 09:01:42;;;;;;;5.67;3.63;;;15.50;99.90;;;;;;8395450;28;20223;-70
2022/10/23 09:05:49;;;;;;;5.17;3.80;;;15.40;99.90;;;;;;8396256;28;20348;-69
2022/10/23 09:10:13;;;;;;;6.40;3.80;;;15.20;99.90;;;;;;8416039;28;20176;-71
2022/10/23 09:15:00;;;;;;;3.97;3.07;;;15.30;99.90;;;;;;8414446;28;20192;-70
2022/10/23 09:19:01;;;;;;;5.30;3.27;;;15.40;99.90;;;;;;8396571;28;20276;-69
2022/10/23 09:23:22;;;;;;;4.77;3.70;;;15.40;99.90;;;;;;8412852;28;20315;-68
2022/10/23 09:27:23;;;;;;;3.90;3.27;;;15.40;99.90;;;;;;8411648;28;20241;-69
2022/10/23 09:31:24;;;;;;;4.80;3.20;;;15.60;99.90;;;;;;8410164;28;20195;-69
2022/10/23 09:35:28;;;;;;;5.33;3.30;;;15.80;99.90;;;;;;8393493;28;20225;-71
2022/10/23 09:39:35;;;;;;;4.13;2.83;;;16.10;99.90;;;;;;8391600;28;20254;-69
2022/10/23 09:43:35;;;;;;;4.27;2.50;;;16.20;99.90;;;;;;8413227;28;20285;-70
2022/10/23 09:47:36;;;;;;;4.90;2.67;;;16.40;99.90;;;;;;8393550;28;20184;-70
2022/10/23 09:51:40;;;;;;;3.60;2.33;;;16.60;99.90;;;;;;8392104;28;20188;-69
2022/10/23 09:55:41;;;;;;;7.37;3.53;;;16.70;1.00;;;;;;8393792;28;20192;-70
2022/10/23 09:59:42;;;;;;;4.60;2.53;;;16.70;1.00;;;;;;8393865;28;20215;-70
2022/10/23 10:03:49;;;;;;;3.97;2.43;;;16.70;99.90;;;;;;8390041;28;21811;-70
2022/10/23 10:08:06;;;;;;;3.30;2.33;;;16.80;99.90;;;;;;8408756;28;20461;-70
2022/10/23 10:12:29;;;;;;;3.73;2.60;;;16.90;99.90;;;;;;8412722;28;20185;-70
2022/10/23 10:16:34;;;;;;;4.43;2.50;;;17.10;99.90;;;;;;8393308;28;20176;-71
2022/10/23 10:20:45;;;;;;;2.73;2.40;;;17.20;99.90;;;;;;8412221;28;20188;-70
2022/10/23 10:24:55;;;;;;;4.37;2.33;;;17.40;1.00;;;;;;8411985;28;20231;-71
2022/10/23 10:29:04;;;;;;;4.47;3.27;;;17.50;99.90;;;;;;8395186;28;20238;-71
2022/10/23 10:33:13;;;;;;;3.23;2.47;;;17.60;99.90;;;;;;8397356;28;20189;-71
2022/10/23 10:37:33;;;;;;;4.37;2.67;;;17.70;99.90;;;;;;8414227;28;20192;-70
2022/10/23 10:41:58;;;;;;;4.67;2.73;;;17.90;99.90;;;;;;8413713;28;20181;-70
2022/10/23 10:46:35;;;;;;;6.93;2.50;;;17.90;99.90;;;;;;8412995;28;20307;-69
2022/10/23 10:50:42;;;;;;;4.83;2.50;;;17.90;99.90;;;;;;8412492;28;20184;-72
2022/10/23 10:54:46;;;;;;;3.23;1.90;;;18.00;99.90;;;;;;8413558;28;20188;-71
2022/10/23 10:58:55;;;;;;;5.00;2.30;;;18.10;99.90;;;;;;8395691;28;20200;-71
2022/10/23 11:03:17;;;;;;;3.07;2.17;;;18.10;99.90;;;;;;8414804;28;20213;-70
2022/10/23 11:07:25;;;;;;;4.43;2.30;;;18.00;95.10;;;;;;8403877;28;20188;-72
2022/10/23 11:11:36;;;;;;;4.60;2.13;;;18.00;99.90;;;;;;8392567;28;20185;-70
2022/10/23 11:15:41;;;;;;;4.33;2.40;;;18.10;99.90;;;;;;8402264;28;20191;-70
2022/10/23 11:19:48;;;;;;;3.30;2.07;;;18.10;99.90;;;;;;8418572;28;20196;-71
2022/10/23 11:24:16;;;;;;;3.10;2.30;;;18.10;99.90;;;;;;8404998;28;20216;-70
2022/10/23 11:28:38;;;;;;;3.90;2.27;;;18.10;99.90;;;;;;8404439;28;20184;-70
2022/10/23 11:32:42;;;;;;;7.30;2.70;;;18.00;99.90;;;;;;8423886;28;20516;-71
2022/10/23 11:36:53;;;;;;;4.33;2.13;;;18.00;99.90;;;;;;8413686;28;20799;-71
2022/10/23 11:40:58;;;;;;;3.83;2.00;;;18.10;96.70;;;;;;8420431;28;20220;-70
2022/10/23 11:44:59;;;;;;;4.73;2.10;;;18.20;99.90;;;;;;8403829;28;20243;-70
2022/10/23 11:49:02;;;;;;;2.93;1.93;;;18.20;99.90;;;;;;8406736;28;20322;-71
2022/10/23 11:53:24;;;;;;;4.67;1.97;;;18.30;99.90;;;;;;8410385;28;20199;-71
2022/10/23 11:57:25;;;;;;;4.10;2.20;;;18.30;99.90;;;;;;8428318;28;20204;-69
2022/10/23 12:01:45;;;;;;;4.97;1.97;;;18.30;99.90;;;;;;8428250;28;20203;-69
2022/10/23 12:05:46;;;;;;;2.57;1.83;;;18.40;99.90;;;;;;8394233;28;20220;-70
2022/10/23 12:09:56;;;;;;;2.60;1.70;;;18.50;99.90;;;;;;8414194;28;20463;-71
2022/10/23 12:13:57;;;;;;;3.60;1.97;;;18.60;85.40;;;;;;8432453;28;20184;-72
2022/10/23 12:18:13;;;;;;;4.93;1.97;;;18.70;72.50;;;;;;8415300;28;20207;-71
2022/10/23 12:22:15;;;;;;;6.90;2.77;;;18.80;23.70;;;;;;8412691;28;20192;-70
2022/10/23 12:26:44;;;;;;;4.07;2.00;;;18.90;1.00;;;;;;8412768;28;20205;-72
2022/10/23 12:31:01;;;;;;;6.07;2.87;;;19.00;1.00;;;;;;8415869;28;20226;-70
2022/10/23 12:35:25;;;;;;;4.27;1.80;;;19.30;1.00;;;;;;8412056;28;20188;-71
2022/10/23 12:39:31;;;;;;;3.20;1.90;;;19.40;1.00;;;;;;8411638;28;20233;-71
2022/10/23 12:43:36;;;;;;;3.60;1.60;;;19.50;1.00;;;;;;8413664;28;20240;-72
2022/10/23 12:47:37;;;;;;;3.07;1.43;;;19.50;1.00;;;;;;8429690;28;20208;-72
2022/10/23 12:51:38;;;;;;;3.13;1.87;;;19.50;1.00;;;;;;8394975;28;20380;-70
2022/10/23 12:55:57;;;;;;;7.10;1.80;;;19.50;1.00;;;;;;8409784;28;20241;-70
2022/10/23 13:00:09;;;;;;;2.83;1.63;;;19.60;1.00;;;;;;8424285;28;20204;-71
2022/10/23 13:04:09;;;;;;;2.70;1.60;;;19.70;1.00;;;;;;8427053;28;20808;-70
2022/10/23 13:08:11;;;;;;;3.37;1.63;;;19.80;1.00;;;;;;8410146;28;20207;-72
2022/10/23 13:12:26;;;;;;;2.83;1.80;;;20.10;1.00;;;;;;8410895;28;20512;-71
2022/10/23 13:16:26;;;;;;;2.67;1.73;;;20.20;99.90;;;;;;8410127;28;20181;-71
2022/10/23 13:20:30;;;;;;;4.10;2.00;;;20.20;1.00;;;;;;8407883;28;20195;-71
2022/10/23 13:24:31;;;;;;;3.97;1.87;;;20.10;99.90;;;;;;8414592;28;20268;-72
2022/10/23 13:28:43;;;;;;;4.87;1.90;;;20.00;99.90;;;;;;8406059;28;20202;-71
2022/10/23 13:32:44;;;;;;;7.20;2.30;;;20.10;1.00;;;;;;8425301;28;20176;-71
2022/10/23 13:37:00;;;;;;;3.10;1.63;;;20.30;99.90;;;;;;8429325;28;20211;-70
2022/10/23 13:41:04;;;;;;;2.37;1.57;;;20.40;99.90;;;;;;8432130;28;20168;-70
2022/10/23 13:45:14;;;;;;;2.10;1.37;;;20.30;99.90;;;;;;8427853;28;20255;-71
2022/10/23 13:49:15;;;;;;;2.13;1.73;;;20.20;99.90;;;;;;8426272;28;20200;-71
2022/10/23 13:53:16;;;;;;;2.30;1.67;;;20.10;99.90;;;;;;8429110;28;20196;-70
2022/10/23 13:57:17;;;;;;;4.87;1.50;;;20.00;99.90;;;;;;8424457;28;20306;-71
2022/10/23 14:01:27;;;;;;;5.17;1.80;;;20.00;1.00;;;;;;8405266;28;20180;-72
2022/10/23 14:05:28;;;;;;;2.57;1.60;;;19.90;1.00;;;;;;8425225;28;20257;-70
2022/10/23 14:09:30;;;;;;;2.73;1.50;;;19.80;1.00;;;;;;8404970;28;20180;-71
2022/10/23 14:13:31;;;;;;;3.03;1.30;;;19.80;1.00;;;;;;8398218;28;20184;-71
2022/10/23 14:17:34;;;;;;;2.17;1.43;;;19.80;1.00;;;;;;8401831;28;20269;-71
2022/10/23 14:21:34;;;;;;;3.40;1.80;;;19.70;1.00;;;;;;8419465;28;20252;-72
2022/10/23 14:25:35;;;;;;;2.50;1.67;;;19.70;1.00;;;;;;8417359;28;20215;-71
2022/10/23 14:29:36;;;;;;;3.60;1.83;;;19.60;1.00;;;;;;8413247;28;20180;-71
2022/10/23 14:33:37;;;;;;;2.77;1.80;;;19.40;1.00;;;;;;8393944;28;20215;-71
2022/10/23 14:37:38;;;;;;;2.90;1.60;;;19.20;1.00;;;;;;8393828;28;20185;-71
2022/10/23 14:41:39;;;;;;;3.07;2.10;;;19.00;48.70;;;;;;8413500;28;20266;-72
2022/10/23 14:45:40;;;;;;;4.17;2.40;;;18.70;99.90;;;;;;8394433;28;20223;-71
2022/10/23 14:49:42;;;;;;;4.63;2.77;;;18.50;99.90;;;;;;8397483;28;20374;-71
2022/10/23 14:53:43;;;;;;;3.73;2.30;;;18.30;1.00;;;;;;8402170;28;20181;-71
2022/10/23 14:57:44;;;;;;;3.30;2.20;;;18.00;1.00;;;;;;8418216;28;20204;-69
2022/10/23 15:01:45;;;;;;;2.37;2.13;;;17.90;65.50;;;;;;8395356;28;20192;-71
2022/10/23 15:05:46;;;;;;;3.67;2.17;;;17.70;99.90;;;;;;8402138;28;20208;-71
2022/10/23 15:09:46;;;;;;;5.60;2.27;;;17.50;99.90;;;;;;8404058;28;20207;-71
2022/10/23 15:13:47;;;;;;;3.17;1.90;;;17.30;1.00;;;;;;8422589;28;20185;-72
2022/10/23 15:17:48;;;;;;;5.93;2.17;;;17.10;1.00;;;;;;8404770;28;20390;-73
2022/10/23 15:21:49;;;;;;;3.67;2.23;;;16.90;99.90;;;;;;8404749;28;20188;-70
2022/10/23 15:26:00;;;;;;;2.27;1.80;;;16.70;1.00;;;;;;8408474;28;20204;-71
2022/10/23 15:30:01;;;;;;;4.43;2.43;;;16.40;99.90;;;;;;8406146;28;20629;-70
2022/10/23 15:34:04;;;;;;;2.30;1.90;;;16.10;1.00;;;;;;8422864;28;20195;-71
2022/10/23 15:38:05;;;;;;;2.30;1.77;;;15.90;99.90;;;;;;8423052;28;20212;-71
2022/10/23 15:42:06;;;;;;;2.73;2.07;;;15.70;99.90;;;;;;8422476;28;20184;-72
2022/10/23 15:46:07;;;;;;;3.13;2.27;;;15.40;1.00;;;;;;8406614;28;20280;-71
2022/10/23 15:50:09;;;;;;;3.17;2.30;;;15.20;99.90;;;;;;8427000;28;20180;-73
2022/10/23 15:54:29;;;;;;;2.17;1.97;;;14.90;1.00;;;;;;8410987;28;20184;-72
2022/10/23 15:58:30;;;;;;;2.47;1.87;;;14.70;99.90;;;;;;8406774;28;20261;-70
2022/10/23 16:02:31;;;;;;;3.40;2.20;;;14.50;61.50;;;;;;8425026;28;20193;-72
2022/10/23 16:06:32;;;;;;;3.30;2.03;;;14.30;1.00;;;;;;8405617;28;20208;-72
2022/10/23 16:10:41;;;;;;;3.93;2.47;;;14.10;1.00;;;;;;8424340;28;20176;-73
2022/10/23 16:14:42;;;;;;;1.93;1.83;;;13.90;99.90;;;;;;8424077;28;20218;-72
2022/10/23 16:18:43;;;;;;;6.10;2.83;;;13.80;99.90;;;;;;8407674;28;20216;-72
2022/10/23 16:22:44;;;;;;;4.77;3.60;;;13.60;99.90;;;;;;8412001;28;20283;-71
2022/10/23 16:26:51;;;;;;;3.70;2.83;;;13.50;68.90;;;;;;8405718;28;20180;-72
2022/10/23 16:30:52;;;;;;;2.70;2.43;;;13.30;7.10;;;;;;8410245;28;20176;-72
2022/10/23 16:34:53;;;;;;;3.90;3.10;;;13.10;99.90;;;;;;8409945;28;20180;-72
2022/10/23 16:38:54;;;;;;;5.03;3.37;;;13.00;99.90;;;;;;8412457;28;20180;-71
2022/10/23 16:42:56;;;;;;;7.87;4.90;;;12.90;99.90;;;;;;8431440;28;20212;-71
2022/10/23 16:46:57;;;;;;;5.53;4.27;;;12.90;99.90;;;;;;8410987;28;20253;-71
2022/10/23 16:50:58;;;;;;;5.00;3.67;;;12.80;99.90;;;;;;8408061;28;20177;-73
2022/10/23 16:55:00;;;;;;;5.07;4.03;;;12.70;99.90;;;;;;8426017;28;20180;-71
2022/10/23 16:59:01;;;;;;;3.40;3.10;;;12.60;99.90;;;;;;8424515;28;20201;-72
2022/10/23 17:03:03;;;;;;;5.33;2.97;;;12.60;99.90;;;;;;8406392;28;20293;-71
2022/10/23 17:07:05;;;;;;;5.70;3.50;;;12.60;99.90;;;;;;8421364;28;20177;-71
2022/10/23 17:11:21;;;;;;;12.30;8.90;;;12.50;99.90;;;;;;8408801;28;20263;-71
2022/10/23 17:15:22;;;;;;;8.77;6.73;;;12.50;99.90;;;;;;8423724;28;20524;-72
2022/10/23 17:19:26;;;;;;;7.60;5.00;;;12.40;99.90;;;;;;8405386;28;20265;-72
2022/10/23 17:23:28;;;;;;;8.23;6.70;;;12.30;99.90;;;;;;8428485;28;20204;-71
2022/10/23 17:27:29;;;;;;;11.00;8.27;;;12.20;99.90;;;;;;8408965;28;20237;-71
2022/10/23 17:31:33;;;;;;;11.67;8.83;;;12.20;99.90;;;;;;8409267;28;20184;-72
2022/10/23 17:35:34;;;;;;;11.80;7.37;;;12.20;99.90;;;;;;8423758;28;20233;-72
2022/10/23 17:39:35;;;;;;;13.30;7.80;;;12.20;99.90;;;;;;8408057;28;20507;-71
2022/10/23 17:43:37;;;;;;;21.53;13.77;;;12.20;99.90;;;;;;8426985;28;20215;-72
2022/10/23 17:47:39;;;;;;;16.10;12.83;;;12.30;99.90;;;;;;8428625;28;20184;-73
2022/10/23 17:51:40;;;;;;;16.33;12.90;;;12.40;99.90;;;;;;8406046;28;20177;-73
2022/10/23 17:55:41;;;;;;;14.47;10.93;;;12.40;99.90;;;;;;8429600;28;20244;-71
2022/10/23 17:59:42;;;;;;;18.20;12.03;;;12.40;99.90;;;;;;8405898;28;20196;-72
2022/10/23 18:03:43;;;;;;;83.30;61.10;;;12.50;99.90;;;;;;8402916;28;20220;-72
2022/10/23 18:07:44;;;;;;;81.70;62.17;;;12.50;99.90;;;;;;8404448;28;20449;-73
2022/10/23 18:11:45;;;;;;;55.87;46.03;;;12.60;99.90;;;;;;8425078;28;20179;-72
2022/10/23 18:15:46;;;;;;;41.37;31.43;;;12.50;99.90;;;;;;8402151;28;20252;-73
2022/10/23 18:19:50;;;;;;;30.80;23.97;;;12.50;99.90;;;;;;8424367;28;20187;-73
2022/10/23 18:23:52;;;;;;;23.03;17.13;;;12.50;99.90;;;;;;8428594;28;20204;-73
2022/10/23 18:27:53;;;;;;;24.83;15.80;;;12.50;99.90;;;;;;8414312;28;20191;-73
2022/10/23 18:31:54;;;;;;;22.57;17.90;;;12.50;99.90;;;;;;8412185;28;20176;-71
2022/10/23 18:35:55;;;;;;;21.47;14.87;;;12.60;99.90;;;;;;8429416;28;20188;-72
2022/10/23 18:39:56;;;;;;;31.90;19.67;;;12.60;99.90;;;;;;8426388;28;20257;-73
2022/10/23 18:43:57;;;;;;;27.33;19.13;;;12.60;99.90;;;;;;8406484;28;20204;-72
2022/10/23 18:47:58;;;;;;;23.80;15.17;;;12.60;99.90;;;;;;8405599;28;20832;-74
2022/10/23 18:51:59;;;;;;;21.43;13.83;;;12.60;99.90;;;;;;8407307;28;20200;-71
2022/10/23 18:56:00;;;;;;;21.87;12.53;;;12.60;99.90;;;;;;8404093;28;20180;-70
2022/10/23 19:00:03;;;;;;;17.60;11.73;;;12.60;99.90;;;;;;8422423;28;20208;-70
2022/10/23 19:04:04;;;;;;;19.00;12.13;;;12.60;99.90;;;;;;8403906;28;20247;-70
2022/10/23 19:08:05;;;;;;;18.90;12.40;;;12.60;99.90;;;;;;8424796;28;20204;-71
2022/10/23 19:12:06;;;;;;;17.57;12.63;;;12.60;99.90;;;;;;8403912;28;20188;-70
2022/10/23 19:16:17;;;;;;;17.00;11.47;;;12.60;99.90;;;;;;8424609;28;20271;-70
2022/10/23 19:20:20;;;;;;;23.00;14.03;;;12.50;99.90;;;;;;8422717;28;20180;-71
2022/10/23 19:24:28;;;;;;;30.33;19.47;;;12.60;99.90;;;;;;8397630;28;20307;-71
2022/10/23 19:28:30;;;;;;;27.30;20.97;;;12.60;99.90;;;;;;8409339;28;20184;-71
2022/10/23 19:32:31;;;;;;;23.80;17.97;;;12.60;99.90;;;;;;8424501;28;20191;-71
2022/10/23 19:36:32;;;;;;;23.60;17.17;;;12.60;99.90;;;;;;8403648;28;20188;-71
2022/10/23 19:40:33;;;;;;;26.27;18.07;;;12.60;99.90;;;;;;8417524;28;20198;-72
2022/10/23 19:44:34;;;;;;;30.57;20.53;;;12.50;99.90;;;;;;8418324;28;20259;-71
2022/10/23 19:48:35;;;;;;;30.57;21.17;;;12.50;99.90;;;;;;8414737;28;20183;-71
2022/10/23 19:52:36;;;;;;;22.43;16.67;;;12.40;99.90;;;;;;8400841;28;20297;-71
2022/10/23 19:56:37;;;;;;;19.70;13.60;;;12.40;99.90;;;;;;8414072;28;20279;-72
2022/10/23 20:00:38;;;;;;;21.83;14.03;;;12.40;99.90;;;;;;8417034;28;20495;-71
2022/10/23 20:04:39;;;;;;;27.57;20.53;;;12.30;99.90;;;;;;8406927;28;20218;-72
2022/10/23 20:08:40;;;;;;;27.13;19.43;;;12.30;99.90;;;;;;8406654;28;20173;-71
2022/10/23 20:12:41;;;;;;;30.47;19.03;;;12.20;99.90;;;;;;8411394;28;20184;-71
2022/10/23 20:16:44;;;;;;;26.30;17.93;;;12.10;99.90;;;;;;8428851;28;20192;-71
2022/10/23 20:20:45;;;;;;;24.43;17.00;;;12.00;99.90;;;;;;8428294;28;20489;-71
2022/10/23 20:24:46;;;;;;;25.13;16.10;;;11.90;99.90;;;;;;8406826;28;20258;-72
2022/10/23 20:28:50;;;;;;;20.87;14.33;;;11.80;99.90;;;;;;8405938;28;20183;-72
2022/10/23 20:32:51;;;;;;;31.40;19.30;;;11.70;99.90;;;;;;8423828;28;20181;-71
2022/10/23 20:36:52;;;;;;;30.97;19.83;;;11.50;99.90;;;;;;8406759;28;20448;-72
2022/10/23 20:40:56;;;;;;;26.63;16.83;;;11.40;99.90;;;;;;8409425;28;20512;-71
2022/10/23 20:44:57;;;;;;;19.90;13.77;;;11.30;99.90;;;;;;8422581;28;20180;-71
2022/10/23 20:48:58;;;;;;;19.07;12.77;;;11.20;99.90;;;;;;8404704;28;20183;-70
2022/10/23 20:52:59;;;;;;;21.80;14.70;;;11.20;99.90;;;;;;8403498;28;20177;-71
2022/10/23 20:56:59;;;;;;;21.77;15.10;;;11.20;99.90;;;;;;8417109;28;20215;-70
2022/10/23 21:01:09;;;;;;;17.13;12.47;;;11.10;99.90;;;;;;8401629;28;20507;-71
2022/10/23 21:05:10;;;;;;;20.90;12.23;;;11.10;99.90;;;;;;8419314;28;20243;-70